Time;durP1;ratioP1;P1;durP2;ratioP2;P2;SDS_P1;SDS_P2;PMS_P1;PMS_P2;Temp;Humidity;BMP_temperature;BMP_pressure;BME280_temperature;BME280_humidity;BME280_pressure;Samples;Min_cycle;Max_cycle;Signal;HPM_P1;HPM_P2
2024/01/03 07:53:45;;;;;;;2.63;0.80;;;;;;;8.17;84.13;95028.97;2089155;28;20579;-72
2024/01/03 07:55:53;;;;;;;4.00;1.00;;;;;;;8.58;82.40;95030.84;2099725;27;20573;-71
2024/01/03 07:56:55;;;;;;;4.97;0.90;;;;;;;8.47;82.86;95031.50;2097815;28;20211;-71
2024/01/03 07:57:57;;;;;;;5.70;0.90;;;;;;;8.59;82.82;95034.25;2098920;28;20196;-70
2024/01/03 07:58:58;;;;;;;3.10;0.95;;;;;;;8.74;81.72;95041.09;2099475;28;20706;-70
2024/01/03 08:00:01;;;;;;;6.28;1.25;;;;;;;8.93;81.39;95022.53;2082160;28;20694;-69
2024/01/03 08:01:03;;;;;;;3.13;0.80;;;;;;;8.81;81.66;95031.97;2080164;28;20428;-70
2024/01/03 08:02:04;;;;;;;3.95;1.00;;;;;;;8.73;82.02;95029.00;2083736;28;20204;-70
2024/01/03 08:05:01;;;;;;;7.50;1.35;;;;;;;8.74;82.42;95022.06;2092781;27;20824;-70
2024/01/03 08:06:03;;;;;;;3.58;0.88;;;;;;;8.99;80.94;95043.00;2083125;28;20196;-69
2024/01/03 08:07:06;;;;;;;6.07;0.85;;;;;;;9.32;80.01;95020.09;2080706;28;20205;-71
2024/01/03 08:08:08;;;;;;;4.30;1.13;;;;;;;9.48;79.25;95022.50;2082625;28;20193;-70
2024/01/03 08:09:10;;;;;;;10.32;1.88;;;;;;;9.63;78.79;95020.66;2081726;28;20270;-70
2024/01/03 08:10:12;;;;;;;1.92;0.80;;;;;;;9.56;78.39;95022.84;2075542;28;20244;-72
2024/01/03 08:11:13;;;;;;;4.45;1.10;;;;;;;9.44;78.88;95034.88;2075181;28;20288;-71
2024/01/03 08:12:15;;;;;;;2.90;0.82;;;;;;;9.35;79.43;95022.47;2072268;28;20198;-70
2024/01/03 08:13:16;;;;;;;4.55;1.10;;;;;;;9.08;79.33;95025.13;2074051;28;20247;-70
2024/01/03 08:14:18;;;;;;;3.85;1.08;;;;;;;8.75;81.12;95028.94;2070285;28;20251;-71
2024/01/03 08:15:19;;;;;;;7.97;1.35;;;;;;;8.46;81.94;95010.78;2073493;28;20237;-71
2024/01/03 08:48:05;;;;;;;2.78;0.75;;;;;;;7.26;95.97;95053.34;2091471;27;20575;-74
2024/01/03 08:49:08;;;;;;;6.40;1.52;;;;;;;7.26;95.44;95018.72;2088942;28;20671;-73
2024/01/03 08:50:11;;;;;;;2.85;1.15;;;;;;;7.32;95.46;95028.75;2089935;28;20231;-74
2024/01/03 08:51:14;;;;;;;7.25;1.15;;;;;;;7.57;94.17;95030.78;2089070;28;20198;-73
2024/01/03 08:52:16;;;;;;;4.30;1.65;;;;;;;7.70;93.07;95043.88;2092775;28;20201;-74
2024/01/03 08:53:24;;;;;;;4.40;1.20;;;;;;;8.51;90.04;95039.94;2090699;28;20838;-76
2024/01/03 08:54:28;;;;;;;5.47;1.15;;;;;;;8.34;89.67;95033.97;2089217;28;20290;-76
2024/01/03 08:55:29;;;;;;;9.50;1.25;;;;;;;8.32;89.66;95045.41;2094248;28;20227;-75
2024/01/03 08:56:31;;;;;;;3.35;0.90;;;;;;;7.95;90.40;95022.47;2087387;28;20553;-76
2024/01/03 08:57:33;;;;;;;5.80;0.98;;;;;;;7.96;90.70;95044.94;2091291;28;20203;-75
2024/01/03 08:58:34;;;;;;;13.70;1.38;;;;;;;7.82;91.06;95045.75;2091198;28;20768;-75
2024/01/03 08:59:36;;;;;;;8.85;1.10;;;;;;;7.81;91.24;95054.47;2090479;28;20218;-77
2024/01/03 09:02:24;;;;;;;1.35;0.60;;;;;;;7.70;91.36;95032.66;2099384;27;20556;-77
2024/01/03 09:10:00;;;;;;;7.78;1.17;;;;;;;7.83;89.65;95029.25;2105161;27;20550;-75
2024/01/03 09:11:11;;;;;;;3.88;0.70;;;;;;;7.88;88.85;95033.34;2106152;28;20279;-75
2024/01/03 09:12:13;;;;;;;3.17;0.93;;;;;;;7.90;89.10;95019.31;2102144;28;20207;-76
2024/01/03 09:13:14;;;;;;;4.93;1.02;;;;;;;7.88;89.59;95046.31;2099599;28;20690;-75
2024/01/03 09:27:31;;;;;;;3.15;0.70;;;;;;;7.73;90.23;95042.88;2083290;28;20553;-73
2024/01/03 09:28:34;;;;;;;3.90;0.88;;;;;;;7.76;90.95;95045.31;2082405;28;20333;-74
2024/01/03 09:43:03;;;;;;;2.95;1.00;;;;;;;7.15;99.24;95040.13;2108042;27;21047;-73
2024/01/03 09:44:05;;;;;;;3.85;0.95;;;;;;;7.19;99.53;95057.19;2111711;28;20197;-74
2024/01/03 09:45:09;;;;;;;1.95;0.80;;;;;;;7.18;99.99;95058.13;2103997;28;20280;-75
2024/01/03 09:46:12;;;;;;;4.40;0.70;;;;;;;7.18;99.68;95045.94;2104303;28;20217;-76
2024/01/03 09:47:14;;;;;;;4.70;0.80;;;;;;;7.21;99.12;95050.13;2105363;28;20588;-75
2024/01/03 09:48:17;;;;;;;3.58;0.80;;;;;;;7.39;97.40;95057.81;2107902;28;20201;-76
2024/01/03 09:49:20;;;;;;;3.10;0.80;;;;;;;7.39;96.31;95071.66;2100948;28;20552;-74
2024/01/03 09:50:23;;;;;;;3.00;0.65;;;;;;;7.51;96.14;95057.09;2105125;28;20227;-76
2024/01/03 09:51:25;;;;;;;1.55;0.70;;;;;;;7.51;96.58;95072.69;2097859;28;20539;-76
2024/01/03 09:52:26;;;;;;;1.77;0.70;;;;;;;7.56;95.80;95065.47;2106718;28;20282;-76
2024/01/03 09:53:30;;;;;;;3.10;0.95;;;;;;;7.58;96.41;95062.78;2106636;28;20748;-75
2024/01/03 09:54:33;;;;;;;7.05;1.15;;;;;;;7.48;97.25;95063.31;2088641;28;20258;-76
2024/01/03 09:58:08;;;;;;;2.05;0.70;;;;;;;7.74;95.82;95073.13;2086302;28;20572;-77
2024/01/03 09:59:11;;;;;;;1.63;0.60;;;;;;;7.83;95.50;95073.44;2090549;28;20210;-77
2024/01/03 10:00:13;;;;;;;5.95;0.70;;;;;;;7.72;96.62;95060.22;2080781;28;20229;-74
2024/01/03 10:01:15;;;;;;;2.47;0.68;;;;;;;7.47;97.14;95056.44;2078610;28;20197;-75
2024/01/03 10:02:24;;;;;;;3.67;1.00;;;;;;;7.57;97.91;95082.72;2080610;28;20373;-76
2024/01/03 10:03:26;;;;;;;2.08;0.65;;;;;;;7.54;97.18;95066.47;2083146;28;20251;-77
2024/01/03 10:04:28;;;;;;;5.40;1.00;;;;;;;7.67;97.16;95059.66;2078621;28;20206;-74
2024/01/03 10:05:31;;;;;;;2.65;0.70;;;;;;;7.65;96.82;95072.72;2066348;28;20201;-74
2024/01/03 10:06:53;;;;;;;2.97;0.85;;;;;;;7.54;97.79;95079.47;2064719;28;20884;-74
2024/01/03 10:08:21;;;;;;;1.88;0.70;;;;;;;7.11;99.42;95023.88;2075757;28;20224;-77
2024/01/03 10:09:49;;;;;;;2.55;0.85;;;;;;;7.40;98.09;95055.13;2059095;28;20227;-76
2024/01/03 10:10:50;;;;;;;1.85;0.65;;;;;;;7.60;98.18;95079.94;2071725;28;20197;-75
2024/01/03 10:11:53;;;;;;;2.65;0.75;;;;;;;7.73;97.57;95087.88;2072063;28;20243;-76
2024/01/03 10:12:55;;;;;;;1.80;0.70;;;;;;;7.73;97.89;95087.88;2072230;28;20204;-76
2024/01/03 10:14:13;;;;;;;3.05;0.80;;;;;;;7.53;98.53;95081.25;2073054;28;20200;-75
2024/01/03 10:19:18;;;;;;;2.97;1.00;;;;;;;7.56;100.00;95077.63;2115166;27;20381;-66
2024/01/03 10:20:23;;;;;;;4.85;1.45;;;;;;;7.79;100.00;95077.13;2099021;28;20217;-67
2024/01/03 10:21:24;;;;;;;4.93;1.10;;;;;;;8.01;97.89;95081.03;2099251;28;20285;-67
2024/01/03 10:22:26;;;;;;;1.40;0.60;;;;;;;8.29;96.63;95074.19;2098115;28;20199;-64
2024/01/03 10:23:28;;;;;;;1.48;0.70;;;;;;;8.03;96.16;95073.19;2098983;28;20199;-65
2024/01/03 10:24:31;;;;;;;4.05;0.60;;;;;;;8.11;97.42;95077.00;2098723;28;20187;-65
2024/01/03 10:25:33;;;;;;;1.27;0.70;;;;;;;8.79;93.61;95078.09;2098390;28;20200;-65
2024/01/03 10:26:43;;;;;;;4.03;0.70;;;;;;;9.68;89.33;95078.50;2092424;28;20199;-71
2024/01/03 10:27:59;;;;;;;2.95;0.70;;;;;;;9.71;87.30;95074.88;2094878;28;20567;-72
2024/01/03 10:29:18;;;;;;;3.40;0.77;;;;;;;9.46;87.25;95063.47;2090105;28;20292;-72
2024/01/03 10:30:20;;;;;;;2.10;0.68;;;;;;;9.51;88.36;95070.97;2091996;28;20277;-72
2024/01/03 10:31:24;;;;;;;1.50;0.60;;;;;;;9.36;88.44;95072.78;2099065;28;20385;-73
2024/01/03 10:32:26;;;;;;;4.15;0.85;;;;;;;9.18;90.26;95057.44;2098560;28;20207;-73
2024/01/03 10:33:28;;;;;;;3.28;0.75;;;;;;;9.41;89.88;95063.75;2097717;28;20199;-73
2024/01/03 10:34:31;;;;;;;1.35;0.68;;;;;;;9.41;89.58;95060.34;2091761;28;20195;-73
2024/01/03 10:35:34;;;;;;;2.13;0.63;;;;;;;10.05;85.08;95044.75;2097975;28;20200;-74
2024/01/03 10:36:38;;;;;;;3.45;0.85;;;;;;;10.05;86.18;95070.00;2090632;28;20249;-74
2024/01/03 10:37:40;;;;;;;1.85;0.60;;;;;;;9.36;88.10;95067.59;2090804;28;20196;-73
2024/01/03 10:38:43;;;;;;;1.58;0.60;;;;;;;8.88;89.16;95048.03;2098261;28;20218;-74
2024/01/03 10:39:49;;;;;;;2.75;0.90;;;;;;;8.78;90.40;95066.00;2097487;28;20226;-75
2024/01/03 10:40:51;;;;;;;3.22;0.82;;;;;;;8.46;91.48;95068.00;2098684;28;20200;-75
2024/01/03 10:41:54;;;;;;;6.20;0.98;;;;;;;8.34;93.23;95083.41;2098988;28;20233;-74
2024/01/03 10:42:56;;;;;;;1.60;0.73;;;;;;;8.32;92.45;95025.44;2099943;28;20620;-73
2024/01/03 10:44:00;;;;;;;3.08;0.80;;;;;;;8.40;93.18;95074.38;2087633;28;20203;-74
2024/01/03 10:45:02;;;;;;;2.38;0.80;;;;;;;8.27;93.93;95066.50;2080977;28;20213;-73
2024/01/03 10:46:05;;;;;;;2.03;0.60;;;;;;;8.85;92.21;95073.41;2092411;28;20207;-73
2024/01/03 10:47:08;;;;;;;5.50;1.00;;;;;;;8.88;91.04;95073.25;2089496;28;20207;-73
2024/01/03 10:48:09;;;;;;;5.30;1.40;;;;;;;8.54;91.65;95064.94;2089974;28;20659;-72
2024/01/03 10:49:13;;;;;;;1.52;0.60;;;;;;;8.27;91.99;95070.88;2098699;28;20246;-74
2024/01/03 10:50:15;;;;;;;1.95;0.60;;;;;;;8.13;92.08;95069.09;2098452;28;20245;-73
2024/01/03 10:51:22;;;;;;;3.03;0.75;;;;;;;8.13;92.27;95066.50;2097130;28;20253;-75
2024/01/03 10:52:30;;;;;;;1.55;0.80;;;;;;;8.11;92.38;95082.19;2097040;28;20195;-74
2024/01/03 10:53:40;;;;;;;1.33;0.52;;;;;;;8.10;91.76;95066.66;2093318;28;20207;-73
2024/01/03 10:54:46;;;;;;;2.95;0.63;;;;;;;8.11;91.33;95076.13;2086201;28;20200;-73
2024/01/03 10:55:53;;;;;;;5.32;0.60;;;;;;;9.15;88.23;95071.50;2093336;28;20203;-74
2024/01/03 10:56:55;;;;;;;2.38;1.02;;;;;;;9.84;83.54;95060.09;2097862;28;20211;-74
2024/01/03 10:58:02;;;;;;;1.77;0.70;;;;;;;9.13;85.02;95080.34;2093045;28;20586;-74
2024/01/03 10:59:05;;;;;;;5.15;0.80;;;;;;;8.68;86.77;95058.88;2094561;28;20212;-74
2024/01/03 11:00:33;;;;;;;1.45;0.60;;;;;;;8.54;87.55;95064.94;2097986;28;20385;-74
2024/01/03 11:01:45;;;;;;;3.45;0.82;;;;;;;8.48;87.80;95071.34;2089992;28;20487;-72
2024/01/03 11:03:10;;;;;;;1.95;0.70;;;;;;;9.07;86.12;95070.31;2093587;28;20822;-74
2024/01/03 11:04:46;;;;;;;2.78;0.82;;;;;;;9.75;82.72;95071.97;2085123;28;20589;-74
2024/01/03 11:06:11;;;;;;;4.75;1.00;;;;;;;9.95;80.18;95081.06;2087524;28;20219;-73
2024/01/03 11:07:32;;;;;;;6.40;0.90;;;;;;;10.04;80.29;95069.16;2086610;28;20197;-74
2024/01/03 11:08:43;;;;;;;7.38;2.17;;;;;;;9.82;81.35;95067.16;2091217;28;20222;-72
2024/01/03 11:09:44;;;;;;;4.40;1.30;;;;;;;9.55;82.33;95080.25;2097470;28;20220;-72
2024/01/03 11:10:53;;;;;;;4.47;0.95;;;;;;;9.05;82.94;95073.00;2091485;28;20205;-73
2024/01/03 11:12:09;;;;;;;3.75;1.20;;;;;;;8.81;85.03;95097.06;2093339;28;20203;-74
2024/01/03 11:13:33;;;;;;;5.13;0.85;;;;;;;8.69;86.12;95090.00;2097332;28;20195;-73
2024/01/03 11:14:35;;;;;;;3.60;1.05;;;;;;;8.88;86.36;95094.91;2088789;28;20199;-73
2024/01/03 11:15:47;;;;;;;7.25;1.38;;;;;;;9.95;83.09;95083.69;2090754;28;20196;-73
2024/01/03 11:16:51;;;;;;;4.93;0.80;;;;;;;10.45;79.08;95075.97;2097803;28;20388;-74
2024/01/03 11:17:53;;;;;;;2.67;0.88;;;;;;;10.58;78.58;95096.84;2097981;28;20231;-76
2024/01/03 11:18:55;;;;;;;4.47;1.60;;;;;;;9.92;78.38;95106.50;2090256;28;20762;-75
2024/01/03 11:20:07;;;;;;;3.38;0.95;;;;;;;9.56;80.51;95074.97;2081286;28;20232;-75
2024/01/03 11:21:23;;;;;;;3.70;0.90;;;;;;;10.41;79.04;95095.41;2094156;28;20200;-74
2024/01/03 11:22:56;;;;;;;3.88;0.70;;;;;;;10.80;77.96;95084.88;2090663;28;20227;-74
2024/01/03 11:23:57;;;;;;;3.50;0.82;;;;;;;10.81;77.41;95081.34;2094808;28;20719;-75
2024/01/03 11:24:59;;;;;;;6.03;0.73;;;;;;;10.59;77.51;95076.81;2090755;28;20650;-75
2024/01/03 11:26:01;;;;;;;3.30;0.70;;;;;;;10.49;79.03;95076.59;2097689;28;20223;-70
2024/01/03 11:27:05;;;;;;;3.50;0.80;;;;;;;11.36;76.92;95075.72;2097870;28;20200;-70
2024/01/03 11:28:36;;;;;;;2.15;0.70;;;;;;;11.73;74.82;95073.88;2097938;28;20199;-70
2024/01/03 11:29:43;;;;;;;3.22;0.70;;;;;;;11.92;74.13;95067.25;2086988;28;20216;-70
2024/01/03 11:30:44;;;;;;;3.13;0.77;;;;;;;11.69;73.19;95068.97;2092893;28;20204;-70
2024/01/03 11:31:58;;;;;;;5.15;0.85;;;;;;;11.86;72.57;95058.09;2092920;28;20196;-70
2024/01/03 11:33:22;;;;;;;1.88;0.63;;;;;;;11.64;72.95;95063.25;2084127;28;20274;-70
2024/01/03 11:34:38;;;;;;;7.53;0.80;;;;;;;10.93;76.01;95063.97;2086629;28;20192;-70
2024/01/03 11:35:46;;;;;;;2.60;0.80;;;;;;;11.60;73.37;95052.19;2082384;28;20212;-71
2024/01/03 11:36:48;;;;;;;1.17;0.60;;;;;;;11.67;71.97;95026.41;2078556;28;20228;-71
2024/01/03 11:37:52;;;;;;;5.40;1.00;;;;;;;11.99;70.47;95058.03;2082940;28;20197;-72
2024/01/03 11:38:53;;;;;;;4.80;1.10;;;;;;;11.94;70.86;95044.44;2090766;28;20235;-71
2024/01/03 11:39:57;;;;;;;6.47;1.10;;;;;;;11.36;72.39;95037.34;2080880;28;20225;-71
2024/01/03 11:40:59;;;;;;;3.88;0.82;;;;;;;11.28;73.45;95037.91;2086999;28;20233;-74
2024/01/03 11:42:02;;;;;;;7.85;1.15;;;;;;;10.24;74.64;95057.38;2088237;28;20201;-76
2024/01/03 11:43:04;;;;;;;6.10;1.50;;;;;;;10.60;74.75;95047.13;2088057;28;20555;-76
2024/01/03 11:44:19;;;;;;;6.22;1.13;;;;;;;9.90;76.92;95057.09;2091948;28;20202;-77
2024/01/03 11:45:22;;;;;;;12.43;1.98;;;;;;;9.56;78.08;95048.03;2089738;28;20284;-75
2024/01/03 11:46:24;;;;;;;2.38;0.80;;;;;;;9.54;78.35;95066.38;2095428;28;20944;-76
2024/01/03 11:47:25;;;;;;;12.23;2.60;;;;;;;9.59;78.89;95040.88;2092832;28;20612;-75
2024/01/03 11:48:27;;;;;;;5.10;1.10;;;;;;;10.04;77.74;95044.88;2091368;28;20204;-75
2024/01/03 11:49:29;;;;;;;12.68;4.72;;;;;;;10.80;75.89;95045.72;2092892;28;20203;-75
2024/01/03 11:50:32;;;;;;;6.68;1.60;;;;;;;10.45;76.74;95049.88;2084212;28;20249;-76
2024/01/03 11:51:37;;;;;;;5.03;0.80;;;;;;;10.77;75.44;95045.97;2086450;28;20311;-76
2024/01/03 11:52:41;;;;;;;2.85;1.00;;;;;;;10.55;75.76;95044.00;2090394;28;20215;-76
2024/01/03 11:53:42;;;;;;;3.42;1.35;;;;;;;10.10;76.21;95049.66;2092438;28;20214;-76
2024/01/03 11:54:44;;;;;;;3.15;1.45;;;;;;;10.50;75.70;95041.75;2093669;28;20196;-76
2024/01/03 11:55:50;;;;;;;7.20;1.00;;;;;;;11.18;73.82;95031.69;2083576;28;20192;-76
2024/01/03 11:56:56;;;;;;;6.28;1.02;;;;;;;11.55;71.70;95034.22;2083559;28;20674;-75
2024/01/03 11:58:05;;;;;;;3.97;0.80;;;;;;;11.71;71.18;95036.53;2084849;28;20197;-74
2024/01/03 11:59:06;;;;;;;3.08;0.77;;;;;;;11.92;70.17;95020.16;2078217;28;20212;-75
2024/01/03 12:00:09;;;;;;;7.82;1.17;;;;;;;11.97;69.93;95019.84;2084098;28;20818;-74
2024/01/03 12:01:15;;;;;;;2.50;0.90;;;;;;;11.91;70.17;95021.94;2090731;28;20194;-74
2024/01/03 12:02:19;;;;;;;3.22;0.75;;;;;;;11.87;70.35;95025.75;2090749;28;20246;-75
2024/01/03 12:03:26;;;;;;;4.78;1.30;;;;;;;11.87;70.24;95027.53;2087960;28;20202;-75
2024/01/03 12:04:28;;;;;;;3.83;0.80;;;;;;;11.66;70.63;95022.97;2088599;28;20928;-75
2024/01/03 12:05:30;;;;;;;4.80;1.15;;;;;;;11.07;72.48;95036.84;2091117;28;20252;-75
2024/01/03 12:06:34;;;;;;;4.80;1.25;;;;;;;10.69;74.07;95036.06;2084665;28;20656;-76
2024/01/03 12:07:37;;;;;;;4.00;0.90;;;;;;;10.06;75.66;95043.00;2086223;28;20687;-75
2024/01/03 12:08:38;;;;;;;4.25;1.05;;;;;;;9.92;76.90;95042.16;2086926;28;20201;-74
2024/01/03 12:09:40;;;;;;;2.85;0.75;;;;;;;9.82;77.75;95035.06;2086636;28;20288;-76
2024/01/03 12:10:42;;;;;;;4.35;1.02;;;;;;;9.68;79.21;95051.63;2091398;28;20211;-74
2024/01/03 12:11:43;;;;;;;6.40;0.98;;;;;;;9.70;79.82;95039.31;2090461;28;20253;-74
2024/01/03 12:12:46;;;;;;;2.45;0.80;;;;;;;9.63;80.21;95052.75;2092574;28;20203;-75
2024/01/03 12:13:50;;;;;;;3.25;1.02;;;;;;;9.61;80.16;95056.38;2091118;28;20250;-73
2024/01/03 12:14:53;;;;;;;5.38;0.95;;;;;;;9.60;80.35;95052.13;2080281;28;20225;-73
2024/01/03 12:16:01;;;;;;;3.90;0.90;;;;;;;9.76;80.97;95057.16;2082829;28;20228;-73
2024/01/03 12:17:03;;;;;;;2.53;0.90;;;;;;;10.12;79.53;95053.84;2091797;28;20254;-72
2024/01/03 12:18:06;;;;;;;3.55;0.75;;;;;;;10.20;79.26;95078.56;2091700;28;20291;-74
2024/01/03 12:19:08;;;;;;;5.40;1.00;;;;;;;9.81;80.87;95044.63;2086043;28;20192;-72
2024/01/03 12:20:12;;;;;;;2.97;0.90;;;;;;;9.48;82.23;95041.59;2084766;28;20239;-72
2024/01/03 12:21:14;;;;;;;4.50;1.00;;;;;;;9.27;83.31;95041.22;2087564;28;20287;-72
2024/01/03 12:22:23;;;;;;;3.97;1.10;;;;;;;9.28;84.00;95035.06;2087873;28;20224;-72
2024/01/03 12:23:31;;;;;;;11.65;1.27;;;;;;;9.03;85.09;95045.38;2090256;28;20671;-72
2024/01/03 12:24:40;;;;;;;19.00;1.27;;;;;;;8.86;85.83;95055.09;2095144;28;20204;-72
2024/01/03 12:25:43;;;;;;;3.17;0.80;;;;;;;8.69;86.92;95047.53;2095365;28;20196;-73
2024/01/03 12:26:49;;;;;;;5.28;0.80;;;;;;;8.84;87.24;95054.38;2094894;28;20203;-72
2024/01/03 12:27:56;;;;;;;5.07;0.90;;;;;;;8.87;86.87;95058.56;2094139;28;20203;-73
2024/01/03 12:29:02;;;;;;;2.35;0.70;;;;;;;9.05;87.95;95054.75;2091867;28;20739;-72
2024/01/03 12:30:13;;;;;;;2.60;0.70;;;;;;;8.64;88.79;95047.81;2086316;28;20231;-72
2024/01/03 12:31:18;;;;;;;2.22;0.80;;;;;;;8.44;91.50;95049.00;2082166;28;20275;-72
2024/01/03 12:32:20;;;;;;;2.30;0.85;;;;;;;8.30;92.21;95053.31;2090943;28;20620;-71
2024/01/03 12:33:24;;;;;;;9.93;1.75;;;;;;;8.26;93.42;95044.00;2084365;28;21105;-72
2024/01/03 12:34:26;;;;;;;2.17;0.93;;;;;;;8.20;93.38;95059.97;2083708;28;20216;-72
2024/01/03 12:35:28;;;;;;;2.17;0.70;;;;;;;8.20;94.70;95046.16;2082964;28;20914;-71
2024/01/03 12:36:29;;;;;;;3.00;1.02;;;;;;;8.14;95.41;95042.19;2092820;28;20201;-71
2024/01/03 12:37:31;;;;;;;3.25;0.98;;;;;;;8.09;95.69;95032.03;2092762;28;20196;-73
2024/01/03 12:38:32;;;;;;;3.38;0.98;;;;;;;8.01;96.10;95027.31;2091853;28;20236;-72
2024/01/03 12:39:37;;;;;;;3.08;0.85;;;;;;;8.16;96.04;95042.91;2091300;28;20219;-72
2024/01/03 12:40:39;;;;;;;3.25;0.90;;;;;;;8.13;94.34;95037.91;2082177;28;20586;-73
2024/01/03 12:41:40;;;;;;;5.00;0.70;;;;;;;8.68;91.86;95035.47;2079815;28;20192;-71
2024/01/03 12:42:45;;;;;;;4.13;0.88;;;;;;;8.73;90.93;95025.59;2090676;28;20361;-73
2024/01/03 12:43:47;;;;;;;3.10;0.70;;;;;;;9.34;87.80;95030.41;2086447;28;20669;-73
2024/01/03 12:44:50;;;;;;;2.78;0.80;;;;;;;9.95;86.06;95010.66;2088009;28;20210;-72
2024/01/03 12:45:51;;;;;;;7.93;0.88;;;;;;;10.19;84.94;95007.28;2092220;28;20689;-72
2024/01/03 12:46:53;;;;;;;4.05;0.90;;;;;;;10.28;83.20;95003.22;2090395;28;20671;-73
2024/01/03 12:47:54;;;;;;;4.90;1.08;;;;;;;10.64;83.19;95006.84;2090336;28;20204;-72
2024/01/03 12:48:56;;;;;;;4.75;1.08;;;;;;;10.75;82.07;94990.41;2092305;28;20808;-73
2024/01/03 12:49:58;;;;;;;2.60;0.85;;;;;;;10.76;81.02;94995.50;2090906;28;20719;-73
2024/01/03 12:51:00;;;;;;;2.50;0.80;;;;;;;10.66;80.68;94985.84;2091646;28;20881;-72
2024/01/03 12:52:01;;;;;;;1.50;0.70;;;;;;;10.60;80.04;94967.06;2092665;28;20211;-73
2024/01/03 12:53:03;;;;;;;3.85;0.80;;;;;;;10.93;79.46;94996.06;2083693;28;20192;-73
2024/01/03 12:54:05;;;;;;;1.10;0.60;;;;;;;10.88;79.26;94993.81;2081468;28;20240;-73
2024/01/03 12:55:07;;;;;;;2.33;0.70;;;;;;;10.97;78.37;94981.88;2081164;28;20228;-73
2024/01/03 12:56:08;;;;;;;1.50;0.60;;;;;;;10.90;78.33;94965.78;2075278;28;20197;-73
2024/01/03 12:57:10;;;;;;;2.70;0.70;;;;;;;11.10;77.83;94980.00;2084713;28;20201;-73
2024/01/03 12:58:11;;;;;;;3.15;0.80;;;;;;;10.89;78.95;94978.97;2084653;28;20198;-73
2024/01/03 12:59:13;;;;;;;2.40;0.70;;;;;;;10.87;79.32;94973.84;2084955;28;20227;-73
2024/01/03 13:00:15;;;;;;;1.75;0.80;;;;;;;11.03;78.25;94962.28;2090039;28;20285;-73
2024/01/03 13:01:17;;;;;;;2.08;0.70;;;;;;;10.92;76.84;94968.31;2090127;28;20258;-73
2024/01/03 13:02:19;;;;;;;2.00;1.00;;;;;;;10.80;77.93;94961.34;2082694;28;20239;-73
2024/01/03 13:03:20;;;;;;;3.00;0.90;;;;;;;10.30;78.14;94976.06;2083387;28;20259;-73
2024/01/03 13:04:22;;;;;;;6.43;0.70;;;;;;;10.35;78.37;94967.94;2092588;28;20287;-73
2024/01/03 13:05:23;;;;;;;2.28;0.70;;;;;;;10.55;77.37;94958.72;2070265;28;20215;-73
2024/01/03 13:06:25;;;;;;;2.85;0.90;;;;;;;10.27;78.17;94970.22;2090837;28;20315;-73
2024/01/03 13:07:27;;;;;;;1.50;0.75;;;;;;;9.95;79.74;94955.06;2092329;28;20831;-73
2024/01/03 13:08:29;;;;;;;2.85;0.60;;;;;;;9.67;80.40;94967.38;2091926;28;20203;-73
2024/01/03 13:09:30;;;;;;;3.92;1.10;;;;;;;9.52;79.95;94952.78;2083314;28;20209;-73
2024/01/03 13:10:32;;;;;;;2.55;1.13;;;;;;;10.02;79.36;94971.97;2080412;28;20227;-74
2024/01/03 13:11:35;;;;;;;4.10;0.70;;;;;;;10.39;78.66;94958.97;2092645;28;20196;-73
2024/01/03 13:12:38;;;;;;;4.20;0.70;;;;;;;10.29;78.05;94971.78;2092806;28;20226;-73
2024/01/03 13:13:39;;;;;;;11.02;2.05;;;;;;;9.97;78.63;94951.41;2088897;28;20234;-73
2024/01/03 13:14:41;;;;;;;1.60;0.70;;;;;;;9.85;79.81;94961.84;2089285;28;20283;-73
2024/01/03 13:15:44;;;;;;;1.27;0.70;;;;;;;9.73;80.23;94974.78;2090153;28;20196;-74
2024/01/03 13:16:48;;;;;;;1.80;0.80;;;;;;;9.58;81.17;94968.81;2090814;28;20196;-73
2024/01/03 13:17:49;;;;;;;3.38;0.80;;;;;;;9.52;81.15;94974.44;2091191;28;20298;-73
2024/01/03 13:18:51;;;;;;;2.47;0.70;;;;;;;9.40;81.25;94970.91;2089678;28;20200;-73
2024/01/03 13:19:53;;;;;;;5.65;0.85;;;;;;;9.57;80.91;94963.72;2093182;28;20214;-72
2024/01/03 13:20:54;;;;;;;1.75;0.73;;;;;;;9.60;80.93;94977.38;2094011;28;20628;-72
2024/01/03 13:21:57;;;;;;;3.50;0.80;;;;;;;9.26;82.03;94966.59;2085282;28;20253;-72
2024/01/03 13:22:59;;;;;;;3.42;1.08;;;;;;;9.08;83.07;94991.28;2084677;28;20259;-71
2024/01/03 13:24:01;;;;;;;2.30;0.70;;;;;;;8.87;84.30;94996.91;2092741;28;20290;-71
2024/01/03 13:25:03;;;;;;;2.10;0.70;;;;;;;8.71;84.79;94989.25;2090613;28;20235;-73
2024/01/03 13:26:05;;;;;;;1.40;0.60;;;;;;;8.59;85.45;95005.63;2090892;28;20204;-73
2024/01/03 13:27:06;;;;;;;4.55;0.80;;;;;;;8.47;85.74;95000.28;2091316;28;20203;-67
2024/01/03 13:28:08;;;;;;;5.43;0.73;;;;;;;8.38;86.33;94995.63;2091397;28;20622;-68
2024/01/03 13:29:09;;;;;;;2.78;0.90;;;;;;;8.32;86.41;95002.03;2081487;28;20201;-70
2024/01/03 13:30:12;;;;;;;3.75;0.80;;;;;;;8.28;87.02;95005.75;2081813;28;20950;-70
2024/01/03 13:31:14;;;;;;;1.40;0.60;;;;;;;8.25;87.39;95008.56;2091437;28;20240;-71
2024/01/03 13:32:16;;;;;;;2.47;0.65;;;;;;;8.20;88.47;95005.38;2091394;28;20201;-68
2024/01/03 13:33:18;;;;;;;3.28;0.90;;;;;;;8.12;88.86;95013.66;2090275;28;20196;-68
2024/01/03 13:34:21;;;;;;;1.00;0.60;;;;;;;8.01;89.29;95014.31;2084884;28;20594;-68
2024/01/03 13:35:23;;;;;;;6.32;0.95;;;;;;;7.96;90.75;95011.16;2084105;28;20281;-70
2024/01/03 13:36:25;;;;;;;5.18;1.00;;;;;;;7.91;91.40;95009.75;2092081;28;20233;-70
2024/01/03 13:37:27;;;;;;;3.17;1.08;;;;;;;7.86;92.75;95012.63;2083214;28;20205;-69
2024/01/03 13:38:28;;;;;;;2.20;0.80;;;;;;;7.73;92.92;95002.13;2083316;28;20700;-69
2024/01/03 13:39:30;;;;;;;1.70;0.70;;;;;;;7.64;93.95;95019.13;2082772;28;20254;-68
2024/01/03 13:40:32;;;;;;;4.15;0.82;;;;;;;7.57;94.99;95024.72;2073556;28;20723;-68
2024/01/03 13:41:34;;;;;;;1.50;0.70;;;;;;;7.48;96.26;95008.78;2080993;28;20200;-71
2024/01/03 13:42:36;;;;;;;2.67;0.93;;;;;;;7.42;97.05;95009.13;2091536;28;20204;-68
2024/01/03 13:43:38;;;;;;;4.43;0.93;;;;;;;7.33;97.67;95007.91;2085287;28;20285;-68
2024/01/03 13:54:23;;;;;;;4.28;0.80;;;;;;;6.93;100.00;94998.97;2093238;27;20559;-65
2024/01/03 13:55:24;;;;;;;4.55;1.10;;;;;;;6.89;100.00;94998.28;2075408;28;20320;-65
2024/01/03 14:14:29;;;;;;;2.95;0.70;;;;;;;6.64;100.00;94963.34;2110422;27;20590;-65
2024/01/03 14:25:21;;;;;;;9.80;1.10;;;;;;;6.65;100.00;94943.44;2084500;28;20580;-73
2024/01/03 14:26:22;;;;;;;3.90;0.75;;;;;;;6.69;100.00;94957.91;2078747;28;20259;-73
2024/01/03 14:38:50;;;;;;;1.42;0.70;;;;;;;6.62;100.00;94935.84;2083264;28;20530;-65
2024/01/03 15:05:16;;;;;;;1.60;0.80;;;;;;;6.72;99.80;94938.72;2076874;28;20573;-68
2024/01/03 15:06:18;;;;;;;3.33;0.75;;;;;;;6.74;99.92;94932.53;2081313;28;20600;-67
2024/01/03 15:07:20;;;;;;;1.98;0.57;;;;;;;6.75;100.00;94934.19;2082609;28;20258;-67
2024/01/03 15:08:21;;;;;;;2.15;0.82;;;;;;;7.06;98.53;94934.22;2082832;28;20200;-67
2024/01/03 15:09:24;;;;;;;1.83;0.60;;;;;;;7.01;98.01;94939.69;2082463;28;20245;-68
2024/01/03 15:10:26;;;;;;;1.90;0.70;;;;;;;6.92;98.41;94929.81;2081862;28;20226;-68
2024/01/03 15:11:28;;;;;;;2.65;0.70;;;;;;;6.83;98.75;94928.56;2080307;28;20207;-67
